createdAt,value
2023-03-15T00:02:12.256Z,60.64
2023-03-15T00:04:41.296Z,60.57
2023-03-15T00:07:09.161Z,60.53
2023-03-15T00:09:36.681Z,60.51
2023-03-15T00:12:05.244Z,60.44
2023-03-15T00:14:32.999Z,60.38
2023-03-15T00:17:00.548Z,60.40
2023-03-15T00:19:28.211Z,60.43
2023-03-15T00:21:55.908Z,60.41
2023-03-15T00:24:27.340Z,60.34
2023-03-15T00:27:05.439Z,60.35
2023-03-15T00:29:33.366Z,60.22
2023-03-15T00:32:01.162Z,60.16
2023-03-15T00:34:28.772Z,60.18
2023-03-15T00:36:56.740Z,60.16
2023-03-15T00:39:25.333Z,60.22
2023-03-15T00:41:55.302Z,60.21
2023-03-15T00:44:24.331Z,60.36
2023-03-15T00:46:52.183Z,60.44
2023-03-15T00:49:20.721Z,60.67
2023-03-15T00:51:48.415Z,60.75
2023-03-15T00:54:16.375Z,60.72
2023-03-15T00:56:44.338Z,60.80
2023-03-15T00:59:12.361Z,60.76
2023-03-15T01:01:42.073Z,60.71
2023-03-15T01:04:13.704Z,60.86
2023-03-15T01:06:41.997Z,60.86
2023-03-15T01:09:09.830Z,60.79
2023-03-15T01:11:37.977Z,60.75
2023-03-15T01:14:07.739Z,60.74
2023-03-15T01:16:36.065Z,60.74
2023-03-15T01:19:03.785Z,60.71
2023-03-15T01:21:34.458Z,60.72
2023-03-15T01:24:02.276Z,60.71
2023-03-15T01:26:30.208Z,60.74
2023-03-15T01:28:58.567Z,60.76
2023-03-15T01:31:30.277Z,60.64
2023-03-15T01:33:58.995Z,60.58
2023-03-15T01:36:28.608Z,60.60
2023-03-15T01:38:57.141Z,60.56
2023-03-15T01:41:26.876Z,60.61
2023-03-15T01:43:54.857Z,60.62
2023-03-15T01:46:34.703Z,60.69
2023-03-15T01:49:26.982Z,60.68
2023-03-15T01:52:12.792Z,60.67
2023-03-15T01:55:05.845Z,60.73
2023-03-15T01:57:51.013Z,60.83
2023-03-15T02:00:20.976Z,60.79
2023-03-15T02:02:58.292Z,60.77
2023-03-15T02:05:32.197Z,60.79
2023-03-15T02:08:01.767Z,60.73
2023-03-15T02:10:37.881Z,60.77
2023-03-15T02:13:06.880Z,60.78
2023-03-15T02:15:34.839Z,60.68
2023-03-15T02:18:04.588Z,60.70
2023-03-15T02:21:03.731Z,60.79
2023-03-15T02:23:33.714Z,60.90
2023-03-15T02:26:25.124Z,60.98
2023-03-15T02:28:53.537Z,61.18
2023-03-15T02:31:22.131Z,61.31
2023-03-15T02:33:52.677Z,61.40
2023-03-15T02:36:26.796Z,61.68
2023-03-15T02:38:56.124Z,61.71
2023-03-15T02:41:37.334Z,61.73
2023-03-15T02:44:10.235Z,61.94
2023-03-15T02:46:38.480Z,62.09
2023-03-15T02:49:08.478Z,62.14
2023-03-15T02:51:36.547Z,62.22
2023-03-15T02:54:04.515Z,62.47
2023-03-15T02:56:32.985Z,62.45
2023-03-15T02:59:00.994Z,62.70
2023-03-15T03:01:29.024Z,62.55
2023-03-15T03:03:57.699Z,62.77
2023-03-15T03:06:25.512Z,62.86
2023-03-15T03:08:53.936Z,62.99
2023-03-15T03:11:21.944Z,63.06
2023-03-15T03:13:50.791Z,63.16
2023-03-15T03:16:21.828Z,63.31
2023-03-15T03:18:49.718Z,63.43
2023-03-15T03:21:17.473Z,63.45
2023-03-15T03:23:45.780Z,63.65
2023-03-15T03:26:17.698Z,63.73
2023-03-15T03:28:49.113Z,63.78
2023-03-15T03:31:21.599Z,63.88
2023-03-15T03:33:50.212Z,63.95
2023-03-15T03:36:18.322Z,63.91
2023-03-15T03:38:46.893Z,63.99
2023-03-15T03:41:15.218Z,63.96
2023-03-15T03:43:43.461Z,63.95
2023-03-15T03:46:11.842Z,63.99
2023-03-15T03:48:41.601Z,64.02
2023-03-15T03:51:09.569Z,64.09
2023-03-15T03:53:37.601Z,64.04
2023-03-15T03:56:06.533Z,64.14
2023-03-15T03:58:34.844Z,64.17
2023-03-15T04:01:13.492Z,64.16
2023-03-15T04:03:42.108Z,64.13
2023-03-15T04:06:11.570Z,64.14
2023-03-15T04:08:41.989Z,64.20
2023-03-15T04:11:11.507Z,64.19
2023-03-15T04:13:40.864Z,64.12
2023-03-15T04:16:08.830Z,64.13
2023-03-15T04:18:39.785Z,64.06
2023-03-15T04:21:10.081Z,64.18
2023-03-15T04:23:38.333Z,64.13
2023-03-15T04:26:26.065Z,64.12
2023-03-15T04:29:22.786Z,64.08
2023-03-15T04:31:56.876Z,63.93
2023-03-15T04:34:30.730Z,63.88
2023-03-15T04:37:06.210Z,63.81
2023-03-15T04:39:35.797Z,63.79
2023-03-15T04:42:22.392Z,63.77
2023-03-15T04:44:53.540Z,63.81
2023-03-15T04:47:40.764Z,63.69
2023-03-15T04:50:11.240Z,63.64
2023-03-15T04:52:43.539Z,63.65
2023-03-15T04:55:13.597Z,63.70
2023-03-15T04:58:01.570Z,63.56
2023-03-15T05:00:47.881Z,63.48
2023-03-15T05:03:29.812Z,63.47
2023-03-15T05:06:04.242Z,63.46
2023-03-15T05:08:37.028Z,63.41
2023-03-15T05:11:15.806Z,63.40
2023-03-15T05:13:48.037Z,63.67
2023-03-15T05:16:23.669Z,63.23
2023-03-15T05:18:51.626Z,62.52
2023-03-15T05:21:24.066Z,62.25
2023-03-15T05:23:56.867Z,62.15
2023-03-15T05:26:45.144Z,62.00
2023-03-15T05:29:15.807Z,61.85
2023-03-15T05:31:45.603Z,61.65
2023-03-15T05:34:27.612Z,61.65
2023-03-15T05:37:00.128Z,61.54
2023-03-15T05:39:31.588Z,61.18
2023-03-15T05:42:01.598Z,61.08
2023-03-15T05:44:40.427Z,60.92
2023-03-15T05:47:23.671Z,60.77
2023-03-15T05:50:11.714Z,60.73
2023-03-15T05:52:41.003Z,60.72
2023-03-15T05:55:19.538Z,60.74
2023-03-15T05:57:55.977Z,60.73
2023-03-15T06:00:23.960Z,60.72
2023-03-15T06:02:53.780Z,60.76
2023-03-15T06:05:29.835Z,60.93
2023-03-15T06:07:58.623Z,60.92
2023-03-15T06:10:26.741Z,61.00
2023-03-15T06:12:54.952Z,60.99
2023-03-15T06:15:23.956Z,60.95
2023-03-15T06:17:52.285Z,60.72
2023-03-15T06:20:20.240Z,60.65
2023-03-15T06:22:48.844Z,60.20
2023-03-15T06:25:18.705Z,60.31
2023-03-15T06:27:46.607Z,60.13
2023-03-15T06:30:17.024Z,60.14
2023-03-15T06:32:45.254Z,60.25
2023-03-15T06:35:13.170Z,60.30
2023-03-15T06:37:41.712Z,60.25
2023-03-15T06:40:11.937Z,60.21
2023-03-15T06:42:45.266Z,60.10
2023-03-15T06:45:17.949Z,59.98
2023-03-15T06:47:47.283Z,59.87
2023-03-15T06:50:16.437Z,59.63
2023-03-15T06:52:44.663Z,59.55
2023-03-15T06:55:14.341Z,59.45
2023-03-15T06:57:44.637Z,59.33
2023-03-15T07:00:13.722Z,59.17
2023-03-15T07:02:41.705Z,58.81
2023-03-15T07:05:10.772Z,58.52
2023-03-15T07:07:38.363Z,58.14
2023-03-15T07:10:08.948Z,57.93
2023-03-15T07:12:36.850Z,57.92
2023-03-15T07:15:05.394Z,57.86
2023-03-15T07:17:33.559Z,57.85
2023-03-15T07:20:01.296Z,58.03
2023-03-15T07:22:29.071Z,57.54
2023-03-15T07:24:56.522Z,57.27
2023-03-15T07:27:24.220Z,57.01
2023-03-15T07:29:51.982Z,56.68
2023-03-15T07:32:19.675Z,56.60
2023-03-15T07:34:47.452Z,56.19
2023-03-15T07:37:16.866Z,56.31
2023-03-15T07:39:44.836Z,56.23
2023-03-15T07:42:13.817Z,55.82
2023-03-15T07:44:42.855Z,55.65
2023-03-15T07:47:11.044Z,55.86
2023-03-15T07:49:38.784Z,55.82
2023-03-15T07:52:07.337Z,55.67
2023-03-15T07:54:34.978Z,55.44
2023-03-15T07:57:02.934Z,55.29
2023-03-15T07:59:30.989Z,55.02
2023-03-15T08:02:01.489Z,54.99
2023-03-15T08:04:28.405Z,54.54
2023-03-15T08:06:56.664Z,54.07
2023-03-15T08:09:24.488Z,53.70
2023-03-15T08:11:52.360Z,53.40
2023-03-15T08:14:20.261Z,53.05
2023-03-15T08:16:48.133Z,53.04
2023-03-15T08:19:15.846Z,52.17
2023-03-15T08:21:44.904Z,52.28
2023-03-15T08:24:13.246Z,51.28
2023-03-15T08:26:42.750Z,51.25
2023-03-15T08:29:16.581Z,51.17
2023-03-15T08:32:03.085Z,51.23
2023-03-15T08:34:33.513Z,50.82
2023-03-15T08:37:01.229Z,50.58
2023-03-15T08:39:28.888Z,50.15
2023-03-15T08:41:56.635Z,49.36
2023-03-15T08:44:24.531Z,49.24
2023-03-15T08:46:52.275Z,49.02
2023-03-15T08:49:20.097Z,48.86
2023-03-15T08:51:47.637Z,48.61
2023-03-15T08:54:15.173Z,47.72
2023-03-15T08:56:43.189Z,47.27
2023-03-15T08:59:12.777Z,47.18
2023-03-15T09:01:40.778Z,47.17
2023-03-15T09:04:08.678Z,46.60
2023-03-15T09:06:36.696Z,45.80
2023-03-15T09:09:04.598Z,46.07
2023-03-15T09:11:32.192Z,44.76
2023-03-15T09:13:59.868Z,45.57
2023-03-15T09:16:27.817Z,45.05
2023-03-15T09:18:55.386Z,45.23
2023-03-15T09:21:24.663Z,45.82
2023-03-15T09:23:52.390Z,45.75
2023-03-15T09:26:20.389Z,45.75
2023-03-15T09:28:49.709Z,45.84
2023-03-15T09:31:17.727Z,45.84
2023-03-15T09:33:49.347Z,45.96
2023-03-15T09:36:17.154Z,45.46
2023-03-15T09:38:46.881Z,45.62
2023-03-15T09:41:40.232Z,45.37
2023-03-15T09:44:25.807Z,45.31
2023-03-15T09:47:34.769Z,45.02
2023-03-15T09:50:10.949Z,45.09
2023-03-15T09:52:49.034Z,45.14
2023-03-15T09:55:23.812Z,45.32
2023-03-15T09:57:58.665Z,45.46
2023-03-15T10:00:40.380Z,45.53
2023-03-15T10:03:28.839Z,43.65
2023-03-15T10:06:02.988Z,43.44
2023-03-15T10:08:32.524Z,42.91
2023-03-15T10:11:37.294Z,42.87
2023-03-15T10:14:54.541Z,42.04
2023-03-15T10:18:14.777Z,41.94
2023-03-15T10:20:54.087Z,41.52
2023-03-15T10:23:47.298Z,41.78
2023-03-15T10:26:19.489Z,41.69
2023-03-15T10:28:49.461Z,41.25
2023-03-15T10:31:44.092Z,41.22
2023-03-15T10:34:04.350Z,40.96
2023-03-15T10:36:32.795Z,40.69
2023-03-15T10:39:00.599Z,40.31
2023-03-15T10:41:47.700Z,39.14
2023-03-15T10:44:25.594Z,39.50
2023-03-15T10:47:21.328Z,39.46
2023-03-15T10:49:40.640Z,39.34
2023-03-15T10:52:35.010Z,39.44
2023-03-15T10:55:18.853Z,38.86
2023-03-15T10:57:59.568Z,38.63
2023-03-15T11:00:33.519Z,38.22
2023-03-15T11:03:19.032Z,37.57
2023-03-15T11:05:51.003Z,37.50
2023-03-15T11:08:23.474Z,37.26
2023-03-15T11:10:59.703Z,37.11
2023-03-15T11:13:31.019Z,36.81
2023-03-15T11:16:03.915Z,36.82
2023-03-15T11:18:46.186Z,36.97
2023-03-15T11:21:17.287Z,37.15
2023-03-15T11:23:49.452Z,37.11
2023-03-15T11:26:33.601Z,37.09
2023-03-15T11:29:25.602Z,36.82
2023-03-15T11:31:55.194Z,36.71
2023-03-15T11:34:40.226Z,36.55
2023-03-15T11:37:19.780Z,35.99
2023-03-15T11:40:29.672Z,36.17
2023-03-15T11:43:08.345Z,35.39
2023-03-15T11:46:06.186Z,35.30
2023-03-15T11:49:15.901Z,35.17
2023-03-15T11:51:44.008Z,35.30
2023-03-15T11:54:17.851Z,35.53
2023-03-15T11:56:53.530Z,35.60
2023-03-15T11:59:33.860Z,35.88
2023-03-15T12:02:16.240Z,36.04
2023-03-15T12:04:50.840Z,36.15
2023-03-15T12:07:24.006Z,36.57
2023-03-15T12:09:55.772Z,36.67
2023-03-15T12:12:31.933Z,36.58
2023-03-15T12:15:07.912Z,36.56
2023-03-15T12:17:52.527Z,36.40
2023-03-15T12:20:40.343Z,36.60
2023-03-15T12:23:13.810Z,36.65
2023-03-15T12:25:55.264Z,36.84
2023-03-15T12:28:41.126Z,36.48
2023-03-15T12:31:15.562Z,36.75
2023-03-15T12:33:54.520Z,36.45
2023-03-15T12:36:40.623Z,36.44
2023-03-15T12:39:20.226Z,36.29
2023-03-15T12:41:50.480Z,35.26
2023-03-15T12:44:23.614Z,35.64
2023-03-15T12:46:54.804Z,34.99
2023-03-15T12:49:28.160Z,34.91
2023-03-15T12:52:13.150Z,35.07
2023-03-15T12:54:48.810Z,34.76
2023-03-15T12:57:29.926Z,34.65
2023-03-15T13:00:14.679Z,34.36
2023-03-15T13:02:53.772Z,34.42
2023-03-15T13:05:35.771Z,34.82
2023-03-15T13:08:23.493Z,35.18
2023-03-15T13:11:05.973Z,34.86
2023-03-15T13:14:03.924Z,34.45
2023-03-15T13:16:58.317Z,33.92
2023-03-15T13:19:33.742Z,34.46
2023-03-15T13:22:32.092Z,34.39
2023-03-15T13:25:12.591Z,34.54
2023-03-15T13:27:56.837Z,34.24
2023-03-15T13:30:42.828Z,33.65
2023-03-15T13:33:22.198Z,33.47
2023-03-15T13:36:06.258Z,33.81
2023-03-15T13:38:44.258Z,33.84
2023-03-15T13:41:26.032Z,33.95
2023-03-15T13:43:57.612Z,33.25
2023-03-15T13:46:29.155Z,33.76
2023-03-15T13:48:57.287Z,33.87
2023-03-15T13:51:31.974Z,33.69
2023-03-15T13:54:17.043Z,33.55
2023-03-15T13:56:59.258Z,33.87
2023-03-15T13:59:53.990Z,33.84
2023-03-15T14:02:47.236Z,34.26
2023-03-15T14:05:19.373Z,34.27
2023-03-15T14:07:50.684Z,34.10
2023-03-15T14:10:37.577Z,33.83
2023-03-15T14:13:37.809Z,34.09
2023-03-15T14:16:10.298Z,34.66
2023-03-15T14:18:41.022Z,34.90
2023-03-15T14:21:20.001Z,34.39
2023-03-15T14:23:49.365Z,34.61
2023-03-15T14:26:21.587Z,34.51
2023-03-15T14:28:57.724Z,34.58
2023-03-15T14:31:27.720Z,34.88
2023-03-15T14:34:00.711Z,34.75
2023-03-15T14:36:42.516Z,34.78
2023-03-15T14:39:33.049Z,34.72
2023-03-15T14:42:00.668Z,34.64
2023-03-15T14:44:28.339Z,35.08
2023-03-15T14:46:56.369Z,35.46
2023-03-15T14:49:26.938Z,35.33
2023-03-15T14:52:04.656Z,35.62
2023-03-15T14:54:33.401Z,35.45
2023-03-15T14:57:01.241Z,35.83
2023-03-15T14:59:28.965Z,36.11
2023-03-15T15:02:00.575Z,36.13
2023-03-15T15:04:33.122Z,36.67
2023-03-15T15:07:02.966Z,36.25
2023-03-15T15:09:31.028Z,36.61
2023-03-15T15:11:58.827Z,36.40
2023-03-15T15:14:26.501Z,36.45
2023-03-15T15:16:54.204Z,36.86
2023-03-15T15:19:21.851Z,37.06
2023-03-15T15:21:51.172Z,36.98
2023-03-15T15:24:21.940Z,37.06
2023-03-15T15:26:49.724Z,37.48
2023-03-15T15:29:17.219Z,37.77
2023-03-15T15:31:45.499Z,37.74
2023-03-15T15:34:13.299Z,37.63
2023-03-15T15:36:43.466Z,37.59
2023-03-15T15:39:21.757Z,37.60
2023-03-15T15:41:50.125Z,37.47
2023-03-15T15:44:21.534Z,37.42
2023-03-15T15:46:49.786Z,37.61
2023-03-15T15:49:19.001Z,37.93
2023-03-15T15:51:51.634Z,38.13
2023-03-15T15:54:26.135Z,37.96
2023-03-15T15:56:56.979Z,38.22
2023-03-15T15:59:25.197Z,38.03
2023-03-15T16:02:01.148Z,38.03
2023-03-15T16:04:25.882Z,38.37
2023-03-15T16:07:01.108Z,39.00
2023-03-15T16:09:34.476Z,39.30
2023-03-15T16:12:04.128Z,39.46
2023-03-15T16:14:31.919Z,39.69
2023-03-15T16:17:01.766Z,39.61
2023-03-15T16:19:29.587Z,39.14
2023-03-15T16:21:57.704Z,39.34
2023-03-15T16:24:29.777Z,39.19
2023-03-15T16:27:01.679Z,39.30
2023-03-15T16:29:48.093Z,39.43
2023-03-15T16:32:37.186Z,39.56
2023-03-15T16:34:56.657Z,39.61
2023-03-15T16:37:31.454Z,39.79
2023-03-15T16:40:01.769Z,39.82
2023-03-15T16:42:30.168Z,39.99
2023-03-15T16:44:58.825Z,40.18
2023-03-15T16:47:26.817Z,40.45
2023-03-15T16:49:55.376Z,40.67
2023-03-15T16:52:23.490Z,40.89
2023-03-15T16:54:51.765Z,40.88
2023-03-15T16:57:22.633Z,40.98
2023-03-15T16:59:51.399Z,41.24
2023-03-15T17:02:23.329Z,41.37
2023-03-15T17:04:52.266Z,41.57
2023-03-15T17:07:28.391Z,42.15
2023-03-15T17:09:59.326Z,42.37
2023-03-15T17:12:28.995Z,42.76
2023-03-15T17:14:58.919Z,43.36
2023-03-15T17:17:36.375Z,43.85
2023-03-15T17:20:11.939Z,43.86
2023-03-15T17:22:43.858Z,44.44
2023-03-15T17:25:12.140Z,44.32
2023-03-15T17:27:42.084Z,44.73
2023-03-15T17:30:27.241Z,44.99
2023-03-15T17:32:55.686Z,45.13
2023-03-15T17:35:37.251Z,46.23
2023-03-15T17:38:10.515Z,46.63
2023-03-15T17:40:38.406Z,47.34
2023-03-15T17:43:06.775Z,47.39
2023-03-15T17:45:37.106Z,47.12
2023-03-15T17:48:05.135Z,47.19
2023-03-15T17:50:34.648Z,47.12
2023-03-15T17:53:07.672Z,47.14
2023-03-15T17:55:35.838Z,47.70
2023-03-15T17:58:14.711Z,48.13
2023-03-15T18:00:43.074Z,49.14
2023-03-15T18:03:14.234Z,50.09
2023-03-15T18:05:42.824Z,50.61
2023-03-15T18:08:17.881Z,51.23
2023-03-15T18:10:47.285Z,52.40
2023-03-15T18:13:19.295Z,54.53
2023-03-15T18:15:51.266Z,54.52
2023-03-15T18:18:20.430Z,55.45
2023-03-15T18:20:49.048Z,55.43
2023-03-15T18:23:19.690Z,55.22
2023-03-15T18:25:47.845Z,56.40
2023-03-15T18:28:15.853Z,56.85
2023-03-15T18:30:45.796Z,57.42
2023-03-15T18:33:15.541Z,57.20
2023-03-15T18:35:45.746Z,57.97
2023-03-15T18:38:15.433Z,58.20
2023-03-15T18:40:42.961Z,60.14
2023-03-15T18:43:13.968Z,59.74
2023-03-15T18:45:42.709Z,59.95
2023-03-15T18:48:11.026Z,60.90
2023-03-15T18:50:38.765Z,62.01
2023-03-15T18:53:06.753Z,63.03
2023-03-15T18:55:35.153Z,63.23
2023-03-15T18:58:04.225Z,63.54
2023-03-15T19:00:35.067Z,63.87
2023-03-15T19:03:05.257Z,64.07
2023-03-15T19:05:37.904Z,65.32
2023-03-15T19:08:05.953Z,65.94
2023-03-15T19:10:36.144Z,65.98
2023-03-15T19:13:07.640Z,66.11
2023-03-15T19:15:35.549Z,66.74
2023-03-15T19:18:05.352Z,66.35
2023-03-15T19:20:35.952Z,65.82
2023-03-15T19:23:05.658Z,66.42
2023-03-15T19:25:33.683Z,66.73
2023-03-15T19:28:01.638Z,67.01
2023-03-15T19:30:30.483Z,66.92
2023-03-15T19:33:00.952Z,67.62
2023-03-15T19:35:28.963Z,68.31
2023-03-15T19:38:00.303Z,68.44
2023-03-15T19:40:27.919Z,68.51
2023-03-15T19:42:55.449Z,67.94
2023-03-15T19:45:23.222Z,67.90
2023-03-15T19:47:51.139Z,67.89
2023-03-15T19:50:19.869Z,68.16
2023-03-15T19:52:47.863Z,68.21
2023-03-15T19:55:28.478Z,68.28
2023-03-15T19:57:58.014Z,68.88
2023-03-15T20:00:25.838Z,68.79
2023-03-15T20:02:54.977Z,68.88
2023-03-15T20:05:29.697Z,68.29
2023-03-15T20:08:02.443Z,68.33
2023-03-15T20:10:30.881Z,67.75
2023-03-15T20:12:58.851Z,67.22
2023-03-15T20:15:29.325Z,66.89
2023-03-15T20:17:56.802Z,66.74
2023-03-15T20:20:24.742Z,66.41
2023-03-15T20:22:52.714Z,66.22
2023-03-15T20:25:20.912Z,65.73
2023-03-15T20:27:51.454Z,65.33
2023-03-15T20:30:21.611Z,64.93
2023-03-15T20:32:49.830Z,64.57
2023-03-15T20:35:17.981Z,63.67
2023-03-15T20:37:46.059Z,62.95
2023-03-15T20:40:15.966Z,60.50
2023-03-15T20:42:45.488Z,59.74
2023-03-15T20:45:19.434Z,58.33
2023-03-15T20:47:47.347Z,58.83
2023-03-15T20:50:17.802Z,58.34
2023-03-15T20:52:45.697Z,58.14
2023-03-15T20:55:14.730Z,57.77
2023-03-15T20:57:45.536Z,57.42
2023-03-15T21:00:17.029Z,57.43
2023-03-15T21:02:46.538Z,57.37
2023-03-15T21:05:15.715Z,56.95
2023-03-15T21:07:43.894Z,57.21
2023-03-15T21:10:15.199Z,57.33
2023-03-15T21:12:44.311Z,57.40
2023-03-15T21:15:14.328Z,58.39
2023-03-15T21:17:42.098Z,59.48
2023-03-15T21:20:12.659Z,60.90
2023-03-15T21:22:41.304Z,61.50
2023-03-15T21:25:09.901Z,62.12
2023-03-15T21:27:37.956Z,62.30
2023-03-15T21:30:07.978Z,63.07
2023-03-15T21:32:35.513Z,63.12
2023-03-15T21:35:04.582Z,63.31
2023-03-15T21:37:33.496Z,63.51
2023-03-15T21:40:04.851Z,63.70
2023-03-15T21:42:34.144Z,63.68
2023-03-15T21:45:02.182Z,63.88
2023-03-15T21:47:30.742Z,64.04
2023-03-15T21:49:58.487Z,64.19
2023-03-15T21:52:27.690Z,64.24
2023-03-15T21:54:55.451Z,64.33
2023-03-15T21:57:23.744Z,64.37
2023-03-15T21:59:51.508Z,64.43
2023-03-15T22:02:19.204Z,64.57
2023-03-15T22:04:47.054Z,64.66
2023-03-15T22:07:14.937Z,65.38
2023-03-15T22:09:42.819Z,66.41
2023-03-15T22:12:10.775Z,66.21
2023-03-15T22:14:39.647Z,66.48
2023-03-15T22:17:08.264Z,66.28
2023-03-15T22:19:36.495Z,66.51
2023-03-15T22:22:04.867Z,66.54
2023-03-15T22:24:33.428Z,67.04
2023-03-15T22:27:01.612Z,67.11
2023-03-15T22:29:29.785Z,67.02
2023-03-15T22:31:57.834Z,67.31
2023-03-15T22:34:26.891Z,67.21
2023-03-15T22:36:55.653Z,67.35
2023-03-15T22:39:23.534Z,67.28
2023-03-15T22:41:51.155Z,67.63
2023-03-15T22:44:19.307Z,67.53
2023-03-15T22:46:47.434Z,67.55
2023-03-15T22:49:15.285Z,68.25
2023-03-15T22:51:43.255Z,68.62
2023-03-15T22:54:10.810Z,68.48
2023-03-15T22:56:40.897Z,68.66
2023-03-15T22:59:08.303Z,68.59
2023-03-15T23:01:36.920Z,68.78
2023-03-15T23:04:04.746Z,70.43
2023-03-15T23:06:32.903Z,70.06
2023-03-15T23:09:01.295Z,69.86
2023-03-15T23:11:29.103Z,69.95
2023-03-15T23:13:56.841Z,70.06
2023-03-15T23:16:24.737Z,70.11
2023-03-15T23:18:52.572Z,70.13
2023-03-15T23:21:20.797Z,70.08
2023-03-15T23:23:48.543Z,70.67
2023-03-15T23:26:18.426Z,71.57
2023-03-15T23:28:46.674Z,73.58
2023-03-15T23:31:14.480Z,72.85
2023-03-15T23:33:44.154Z,73.27
2023-03-15T23:36:11.998Z,73.03
2023-03-15T23:38:40.338Z,72.74
2023-03-15T23:41:08.022Z,72.66
2023-03-15T23:43:35.684Z,73.05
2023-03-15T23:46:05.080Z,72.90
2023-03-15T23:48:35.604Z,72.81
2023-03-15T23:51:04.327Z,73.11
2023-03-15T23:53:32.341Z,73.34
2023-03-15T23:56:00.897Z,73.50
2023-03-15T23:58:28.817Z,73.55
